Time;durP1;ratioP1;P1;durP2;ratioP2;P2;SDS_P1;SDS_P2;PMS_P1;PMS_P2;Temp;Humidity;BMP_temperature;BMP_pressure;BME280_temperature;BME280_humidity;BME280_pressure;Samples;Min_cycle;Max_cycle;Signal;HPM_P1;HPM_P2
2022/01/12 00:01:15;;;;;;;5.28;1.38;;;28.90;99.90;;;;;;4972495;28;20019;-78
2022/01/12 00:03:46;;;;;;;6.03;0.98;;;28.90;99.90;;;;;;4967929;28;20422;-78
2022/01/12 00:06:14;;;;;;;4.68;0.60;;;28.80;99.90;;;;;;4970676;28;20026;-76
2022/01/12 00:08:42;;;;;;;2.58;0.93;;;28.70;99.90;;;;;;4963606;28;20435;-78
2022/01/12 00:11:10;;;;;;;4.05;1.08;;;28.60;99.40;;;;;;4967205;28;20552;-78
2022/01/12 00:13:37;;;;;;;2.42;1.05;;;28.60;99.40;;;;;;4967402;28;20118;-78
2022/01/12 00:16:05;;;;;;;4.35;0.95;;;28.70;99.60;;;;;;4968686;28;20069;-77
2022/01/12 00:18:33;;;;;;;2.45;0.82;;;28.70;99.30;;;;;;4968213;28;20023;-77
2022/01/12 00:21:01;;;;;;;2.53;0.77;;;28.70;98.90;;;;;;4970594;28;20393;-76
2022/01/12 00:23:29;;;;;;;3.42;0.60;;;28.80;99.10;;;;;;4970687;28;20093;-76
2022/01/12 00:26:01;;;;;;;1.17;0.50;;;28.90;99.00;;;;;;4956863;28;20133;-77
2022/01/12 00:34:04;;;;;;;4.18;0.60;;;29.00;98.90;;;;;;4976595;28;20050;-77
2022/01/12 00:36:32;;;;;;;1.75;0.80;;;28.80;99.60;;;;;;4973420;28;20109;-76
2022/01/12 00:39:02;;;;;;;3.88;1.38;;;28.80;99.70;;;;;;4963145;28;20470;-78
2022/01/12 00:41:29;;;;;;;3.25;1.30;;;28.90;99.60;;;;;;4975700;28;20089;-79
2022/01/12 00:43:59;;;;;;;3.80;1.55;;;29.10;99.60;;;;;;4969558;28;20069;-77
2022/01/12 00:46:29;;;;;;;3.08;0.70;;;29.30;99.10;;;;;;4976197;28;20019;-79
2022/01/12 00:48:58;;;;;;;4.35;0.73;;;29.30;98.30;;;;;;4970841;28;20052;-80
2022/01/12 00:51:28;;;;;;;6.55;1.40;;;29.10;98.20;;;;;;4965447;28;20386;-78
2022/01/12 00:53:56;;;;;;;4.57;1.08;;;28.90;98.80;;;;;;4970380;28;20453;-79
2022/01/12 00:56:24;;;;;;;3.38;0.45;;;28.70;98.60;;;;;;4969362;28;20118;-77
2022/01/12 00:58:52;;;;;;;5.03;1.63;;;28.60;98.50;;;;;;4977030;28;20493;-81
2022/01/12 01:01:21;;;;;;;5.30;0.60;;;28.50;98.30;;;;;;4975483;28;20060;-76
2022/01/12 01:03:49;;;;;;;3.38;0.80;;;28.40;98.60;;;;;;4971322;28;20035;-78
2022/01/12 01:06:18;;;;;;;2.08;0.40;;;28.30;98.50;;;;;;4968242;28;20038;-80
2022/01/12 01:08:48;;;;;;;2.30;0.63;;;28.20;99.10;;;;;;4973417;28;20065;-76
2022/01/12 01:11:15;;;;;;;4.22;0.75;;;28.10;98.40;;;;;;4974416;28;20342;-76
2022/01/12 01:13:55;;;;;;;5.32;1.13;;;28.00;98.70;;;;;;4968069;28;20023;-75
2022/01/12 01:16:47;;;;;;;4.10;1.00;;;28.00;98.30;;;;;;4970773;28;20057;-77
2022/01/12 01:27:28;;;;;;;5.20;0.88;;;28.10;99.90;;;;;;4984152;28;20048;-76
2022/01/12 01:29:55;;;;;;;3.63;1.25;;;28.00;99.90;;;;;;4968605;28;20034;-77
2022/01/12 01:32:24;;;;;;;4.13;0.90;;;28.00;99.90;;;;;;4971738;28;20027;-76
2022/01/12 01:34:52;;;;;;;2.53;0.43;;;28.10;99.90;;;;;;4966420;28;20058;-76
2022/01/12 01:37:19;;;;;;;1.38;0.40;;;28.10;99.90;;;;;;4961055;28;20022;-75
2022/01/12 01:39:47;;;;;;;1.52;0.50;;;28.00;99.90;;;;;;4968983;28;20039;-76
2022/01/12 01:42:20;;;;;;;1.70;0.80;;;28.10;99.90;;;;;;4969670;28;20038;-76
2022/01/12 01:53:22;;;;;;;;;;;28.10;99.90;;;;;;4967934;28;20117;-77
2022/01/12 01:55:50;;;;;;;;;;;28.10;99.90;;;;;;4969172;28;20056;-77
2022/01/12 01:58:18;;;;;;;3.58;1.15;;;28.10;99.90;;;;;;4968422;28;19926;-77
2022/01/12 02:00:45;;;;;;;1.95;0.70;;;28.00;99.90;;;;;;4969159;28;20019;-78
2022/01/12 02:03:13;;;;;;;8.00;1.48;;;28.20;99.90;;;;;;4969189;28;20426;-77
2022/01/12 02:05:42;;;;;;;3.47;0.63;;;28.30;99.90;;;;;;4969279;28;20069;-77
2022/01/12 02:08:10;;;;;;;1.05;0.50;;;28.50;99.90;;;;;;4967927;28;20023;-76
2022/01/12 02:10:38;;;;;;;3.25;0.60;;;28.80;99.90;;;;;;4966826;28;20386;-75
2022/01/12 02:13:06;;;;;;;1.30;0.50;;;29.20;99.90;;;;;;4962354;28;20121;-77
2022/01/12 02:15:33;;;;;;;1.33;0.30;;;29.60;99.90;;;;;;4973415;28;20033;-77
2022/01/12 02:37:01;;;;;;;3.10;0.73;;;32.10;96.40;;;;;;4969125;28;20473;-76
2022/01/12 02:42:17;;;;;;;;;;;31.90;96.20;;;;;;4970025;28;20604;-76
2022/01/12 02:55:46;;;;;;;0.30;0.10;;;31.40;96.80;;;;;;4969797;28;20085;-76
2022/01/12 02:58:14;;;;;;;1.35;0.30;;;31.30;97.00;;;;;;4965738;28;20041;-76
2022/01/12 03:03:38;;;;;;;1.08;0.30;;;31.20;96.80;;;;;;4961472;28;20034;-77
2022/01/12 03:06:09;;;;;;;1.88;0.47;;;31.10;96.30;;;;;;4971979;28;20057;-76
2022/01/12 03:08:37;;;;;;;0.82;0.30;;;31.10;96.10;;;;;;4968249;28;20046;-76
2022/01/12 03:11:07;;;;;;;3.00;0.40;;;31.00;96.60;;;;;;4972813;28;20046;-78
2022/01/12 03:13:35;;;;;;;0.88;0.20;;;30.90;96.40;;;;;;4971617;28;20032;-77
2022/01/12 03:16:11;;;;;;;1.15;0.20;;;30.90;96.30;;;;;;4976206;28;20045;-77
2022/01/12 03:18:39;;;;;;;1.30;0.20;;;30.80;97.10;;;;;;4972101;28;20478;-76
2022/01/12 03:21:07;;;;;;;1.67;0.30;;;30.80;96.90;;;;;;4973160;28;20027;-77
2022/01/12 03:23:34;;;;;;;1.65;0.50;;;30.60;98.10;;;;;;4968321;28;20133;-77
2022/01/12 03:26:02;;;;;;;2.28;0.40;;;30.10;98.50;;;;;;4965737;28;20023;-78
2022/01/12 03:28:29;;;;;;;1.52;0.40;;;29.60;99.00;;;;;;4980107;28;20048;-77
2022/01/12 03:31:09;;;;;;;1.05;0.20;;;29.20;99.70;;;;;;4970275;28;20057;-78
2022/01/12 03:36:29;;;;;;;1.92;0.73;;;28.80;99.90;;;;;;4977135;28;20061;-78
2022/01/12 03:39:01;;;;;;;2.72;2.00;;;28.50;99.90;;;;;;4974169;28;20059;-77
2022/01/12 03:41:32;;;;;;;1.98;0.85;;;28.20;99.90;;;;;;4972670;28;20043;-77
2022/01/12 03:44:01;;;;;;;1.73;0.93;;;28.20;99.90;;;;;;4965467;28;20054;-77
2022/01/12 03:46:35;;;;;;;0.57;0.50;;;27.90;99.90;;;;;;4968251;28;20034;-76
2022/01/12 03:49:03;;;;;;;0.70;0.40;;;27.60;99.90;;;;;;4976407;28;20106;-76
2022/01/12 03:51:30;;;;;;;2.20;0.70;;;27.20;99.90;;;;;;4972861;28;20041;-75
2022/01/12 03:53:58;;;;;;;1.27;0.90;;;26.80;99.90;;;;;;4969189;28;20331;-76
2022/01/12 03:56:25;;;;;;;2.13;0.98;;;26.60;99.90;;;;;;4970097;28;20390;-76
2022/01/12 03:58:53;;;;;;;2.28;0.70;;;26.50;99.90;;;;;;4972866;28;20458;-76
2022/01/12 04:01:20;;;;;;;1.63;0.65;;;26.40;99.90;;;;;;4970300;28;20069;-76
2022/01/12 04:03:58;;;;;;;0.90;0.60;;;26.30;99.90;;;;;;4965623;28;20128;-77
2022/01/12 04:09:12;;;;;;;2.42;0.70;;;26.20;99.90;;;;;;4968546;28;20081;-77
2022/01/12 04:11:40;;;;;;;0.90;0.55;;;26.10;99.90;;;;;;4970332;28;20054;-76
2022/01/12 04:14:08;;;;;;;2.33;0.60;;;26.00;99.90;;;;;;4968968;28;20652;-75
2022/01/12 04:16:37;;;;;;;1.42;0.68;;;25.90;99.90;;;;;;4969578;28;20032;-75
2022/01/12 04:19:05;;;;;;;1.27;0.73;;;25.80;99.90;;;;;;4964878;28;20615;-76
2022/01/12 04:21:40;;;;;;;0.52;0.50;;;25.70;99.90;;;;;;4972003;28;20462;-76
2022/01/12 04:24:07;;;;;;;1.00;0.90;;;25.60;99.90;;;;;;4968115;28;20196;-74
2022/01/12 04:26:35;;;;;;;1.60;0.95;;;25.50;99.90;;;;;;4965438;28;20195;-75
2022/01/12 04:29:03;;;;;;;2.00;0.45;;;25.50;99.90;;;;;;4966707;28;20054;-74
2022/01/12 04:31:30;;;;;;;1.75;0.30;;;25.40;99.90;;;;;;4968463;28;20297;-75
2022/01/12 04:33:58;;;;;;;1.48;0.40;;;25.30;99.90;;;;;;4968581;28;20074;-75
2022/01/12 04:36:25;;;;;;;1.67;0.30;;;25.20;99.90;;;;;;4969982;28;21276;-75
2022/01/12 04:38:52;;;;;;;0.80;0.50;;;25.20;99.90;;;;;;4969534;28;20046;-75
2022/01/12 04:41:21;;;;;;;1.63;0.40;;;25.20;99.90;;;;;;4970028;28;20101;-76
2022/01/12 04:43:49;;;;;;;0.65;0.30;;;25.30;99.90;;;;;;4965359;28;20486;-76
2022/01/12 04:48:57;;;;;;;0.52;0.52;;;25.60;99.90;;;;;;4969435;28;20023;-76
2022/01/12 04:51:37;;;;;;;0.90;0.40;;;25.80;99.90;;;;;;4973167;28;20507;-76
2022/01/12 04:54:05;;;;;;;0.30;0.20;;;26.30;99.90;;;;;;4972857;28;20034;-77
2022/01/12 04:56:33;;;;;;;0.43;0.20;;;26.50;99.90;;;;;;4979678;28;20130;-77
2022/01/12 04:59:02;;;;;;;0.57;0.40;;;26.80;99.90;;;;;;4962629;28;20097;-77
2022/01/12 05:01:35;;;;;;;0.60;0.38;;;27.00;99.90;;;;;;4966248;28;20118;-77
2022/01/12 05:07:21;;;;;;;0.85;0.30;;;26.90;99.90;;;;;;4963440;28;20050;-78
2022/01/12 05:12:44;;;;;;;1.85;0.30;;;26.50;99.90;;;;;;4979469;28;20049;-75
2022/01/12 05:15:20;;;;;;;1.52;0.90;;;26.20;99.90;;;;;;4967939;28;20085;-77
2022/01/12 05:17:48;;;;;;;2.80;1.27;;;26.20;99.90;;;;;;4966555;28;20034;-79
2022/01/12 05:20:15;;;;;;;2.35;1.23;;;26.30;99.90;;;;;;4968417;28;20026;-79
2022/01/12 05:22:42;;;;;;;0.80;0.80;;;26.70;99.90;;;;;;4970436;28;20070;-79
2022/01/12 05:25:10;;;;;;;0.57;0.50;;;27.10;99.90;;;;;;4963114;28;20082;-80
2022/01/12 05:27:37;;;;;;;1.13;0.77;;;27.30;99.90;;;;;;4968244;28;20061;-79
2022/01/12 05:30:05;;;;;;;0.68;0.68;;;27.40;99.90;;;;;;4969809;28;20034;-78
2022/01/12 05:32:33;;;;;;;0.73;0.40;;;27.20;99.90;;;;;;4972301;28;20034;-80
2022/01/12 05:35:02;;;;;;;0.95;0.40;;;26.90;99.90;;;;;;4970590;28;20361;-80
2022/01/12 05:37:29;;;;;;;0.50;0.40;;;26.70;99.90;;;;;;4979060;28;20141;-77
2022/01/12 05:40:00;;;;;;;0.20;0.20;;;26.70;99.90;;;;;;4971824;28;20027;-79
2022/01/12 05:42:27;;;;;;;0.38;0.17;;;26.50;99.90;;;;;;4970998;28;20034;-80
2022/01/12 05:44:55;;;;;;;1.55;0.28;;;26.50;99.90;;;;;;4973087;28;20049;-80
2022/01/12 05:49:34;;;;;;;1.85;0.73;;;26.40;99.90;;;;;;4984390;28;20101;-78
2022/01/12 05:50:27;;;;;;;0.30;0.10;;;26.40;99.90;;;;;;4974602;28;20050;-76
2022/01/12 05:52:54;;;;;;;0.63;0.20;;;26.40;99.90;;;;;;4973110;28;20031;-77
2022/01/12 05:55:22;;;;;;;1.95;0.10;;;26.50;99.90;;;;;;4966813;28;20493;-76
2022/01/12 05:57:49;;;;;;;0.30;0.25;;;26.40;99.90;;;;;;4974719;28;20034;-77
2022/01/12 06:00:19;;;;;;;0.80;0.20;;;26.10;99.90;;;;;;4973145;28;20347;-77
2022/01/12 06:02:47;;;;;;;0.45;0.10;;;25.90;99.90;;;;;;4975769;28;20085;-78
2022/01/12 06:05:14;;;;;;;0.40;0.10;;;25.50;99.90;;;;;;4971226;28;20561;-77
2022/01/12 06:07:52;;;;;;;2.58;0.30;;;25.10;99.90;;;;;;4970505;28;20026;-80
2022/01/12 06:10:22;;;;;;;0.90;0.30;;;24.80;99.90;;;;;;4965893;28;20125;-76
2022/01/12 06:12:51;;;;;;;0.35;0.22;;;24.50;99.90;;;;;;4971886;28;20114;-75
2022/01/12 06:15:19;;;;;;;2.42;0.32;;;24.40;99.90;;;;;;4970840;28;20030;-75
2022/01/12 06:17:47;;;;;;;0.32;0.30;;;24.20;99.90;;;;;;4968597;28;20038;-77
2022/01/12 06:20:15;;;;;;;2.35;0.40;;;24.20;99.90;;;;;;4968135;28;20503;-76
2022/01/12 06:22:42;;;;;;;1.52;0.47;;;24.00;99.90;;;;;;4973991;28;20723;-75
2022/01/12 06:25:14;;;;;;;1.98;0.45;;;23.80;99.90;;;;;;4966186;28;20038;-76
2022/01/12 06:27:55;;;;;;;0.65;0.60;;;23.60;99.90;;;;;;4969420;28;20043;-76
2022/01/12 06:32:57;;;;;;;0.90;0.40;;;23.50;99.90;;;;;;4968959;28;20018;-77
2022/01/12 06:35:25;;;;;;;2.13;0.60;;;23.60;99.90;;;;;;4967696;28;20027;-76
2022/01/12 06:37:54;;;;;;;2.33;1.13;;;23.60;99.90;;;;;;4972248;28;20082;-76
2022/01/12 06:40:22;;;;;;;2.10;0.40;;;23.70;99.90;;;;;;4964616;28;20029;-77
2022/01/12 06:42:50;;;;;;;1.17;0.40;;;23.80;99.90;;;;;;4972463;28;20018;-77
2022/01/12 06:45:17;;;;;;;2.83;1.00;;;23.80;99.90;;;;;;4970951;28;20477;-77
2022/01/12 06:47:45;;;;;;;1.98;0.68;;;23.80;99.90;;;;;;4973154;28;20056;-76
2022/01/12 06:50:12;;;;;;;3.28;0.73;;;23.90;99.90;;;;;;4971613;28;20034;-77
2022/01/12 06:52:39;;;;;;;2.08;0.60;;;24.00;99.90;;;;;;4966216;28;20138;-76
2022/01/12 06:55:07;;;;;;;3.50;0.57;;;24.10;99.90;;;;;;4976999;28;20452;-77
2022/01/12 06:57:34;;;;;;;2.35;0.80;;;24.20;99.90;;;;;;4964688;28;20098;-78
2022/01/12 07:00:02;;;;;;;2.90;1.50;;;24.30;99.90;;;;;;4970794;28;20079;-78
2022/01/12 07:02:30;;;;;;;0.98;0.50;;;24.50;99.90;;;;;;4972014;28;20054;-77
2022/01/12 07:04:57;;;;;;;6.53;0.50;;;24.50;99.90;;;;;;4970052;28;20477;-76
2022/01/12 07:07:24;;;;;;;1.95;0.55;;;24.50;99.90;;;;;;4972676;28;20019;-75
2022/01/12 07:09:53;;;;;;;1.25;0.32;;;24.50;99.90;;;;;;4968407;28;20075;-76
2022/01/12 07:12:20;;;;;;;0.43;0.20;;;24.40;99.90;;;;;;4964768;28;20573;-77
2022/01/12 07:14:47;;;;;;;2.47;0.43;;;24.30;99.90;;;;;;4972134;28;20030;-76
2022/01/12 07:17:15;;;;;;;0.60;0.25;;;24.40;99.90;;;;;;4968377;28;20042;-77
2022/01/12 07:19:42;;;;;;;0.95;0.55;;;24.30;99.90;;;;;;4969750;28;20030;-77
2022/01/12 07:22:09;;;;;;;1.90;0.30;;;24.20;99.90;;;;;;4983515;28;20042;-77
2022/01/12 07:24:37;;;;;;;0.70;0.10;;;24.20;99.90;;;;;;4977495;28;20043;-77
2022/01/12 07:27:04;;;;;;;1.02;0.22;;;24.20;99.90;;;;;;4980593;28;20419;-76
2022/01/12 07:29:32;;;;;;;0.40;0.20;;;24.10;99.90;;;;;;4974460;28;20034;-77
2022/01/12 07:31:59;;;;;;;1.73;0.90;;;24.20;99.90;;;;;;4976232;28;20042;-77
2022/01/12 07:34:27;;;;;;;1.35;0.70;;;24.20;99.90;;;;;;4972825;28;20030;-77
2022/01/12 07:36:54;;;;;;;2.88;0.70;;;24.20;99.90;;;;;;4977427;28;20126;-77
2022/01/12 07:39:21;;;;;;;3.80;1.40;;;24.30;99.90;;;;;;4964981;28;20023;-77
2022/01/12 07:41:49;;;;;;;2.42;1.02;;;24.30;99.90;;;;;;4974947;28;20505;-78
2022/01/12 07:44:16;;;;;;;2.97;0.60;;;24.20;99.90;;;;;;4968873;28;20038;-78
2022/01/12 07:46:43;;;;;;;1.90;0.68;;;24.20;99.90;;;;;;4985672;28;20117;-77
2022/01/12 07:49:11;;;;;;;0.80;0.65;;;24.30;99.90;;;;;;4969620;28;20303;-77
2022/01/12 07:51:38;;;;;;;0.47;0.40;;;24.40;99.90;;;;;;4972526;28;20118;-77
2022/01/12 07:54:06;;;;;;;2.05;0.50;;;24.40;99.90;;;;;;4970872;28;20035;-77
2022/01/12 07:56:33;;;;;;;1.52;0.45;;;24.30;99.90;;;;;;4967664;28;20401;-77
2022/01/12 07:59:01;;;;;;;4.65;0.80;;;24.20;99.90;;;;;;4966254;28;20050;-75
2022/01/12 08:01:28;;;;;;;1.67;0.40;;;24.10;99.90;;;;;;4970646;28;20102;-76
2022/01/12 08:03:55;;;;;;;2.05;0.65;;;23.90;99.90;;;;;;4972056;28;20026;-76
2022/01/12 08:06:23;;;;;;;4.95;0.45;;;23.70;99.90;;;;;;4978218;28;20031;-77
2022/01/12 08:08:50;;;;;;;0.98;0.40;;;23.60;99.90;;;;;;4970790;28;20473;-76
2022/01/12 08:11:18;;;;;;;0.50;0.30;;;23.40;99.90;;;;;;4972882;28;20035;-76
2022/01/12 08:13:45;;;;;;;1.75;0.38;;;23.30;99.90;;;;;;4970758;28;20035;-77
2022/01/12 08:16:12;;;;;;;1.92;0.47;;;23.10;99.90;;;;;;4970079;28;20037;-76
2022/01/12 08:18:40;;;;;;;0.65;0.30;;;23.00;99.90;;;;;;4968793;28;20026;-75
2022/01/12 08:21:07;;;;;;;0.98;0.35;;;22.80;99.90;;;;;;4975011;28;20033;-75
2022/01/12 08:23:35;;;;;;;2.75;0.85;;;22.80;99.90;;;;;;4966765;28;20057;-76
2022/01/12 08:26:02;;;;;;;3.15;0.60;;;22.70;99.90;;;;;;4986642;28;20022;-75
2022/01/12 08:28:33;;;;;;;0.52;0.22;;;22.70;99.90;;;;;;4972299;28;20461;-76
2022/01/12 08:31:00;;;;;;;2.30;0.70;;;22.60;99.90;;;;;;4974432;28;20074;-76
2022/01/12 08:33:28;;;;;;;2.08;0.30;;;22.60;99.90;;;;;;4979779;28;20070;-76
2022/01/12 08:35:56;;;;;;;1.17;0.47;;;22.60;99.90;;;;;;4976019;28;20390;-76
2022/01/12 08:38:23;;;;;;;0.82;0.82;;;22.60;99.90;;;;;;4972051;28;20102;-75
2022/01/12 08:40:51;;;;;;;2.88;0.70;;;22.60;99.90;;;;;;4975691;28;20042;-77
2022/01/12 08:43:18;;;;;;;1.85;0.30;;;22.60;99.90;;;;;;4966328;28;20054;-77
2022/01/12 08:45:46;;;;;;;0.50;0.30;;;22.50;99.90;;;;;;4970517;28;20809;-76
2022/01/12 08:48:13;;;;;;;0.98;0.35;;;22.50;99.90;;;;;;4971955;28;20623;-76
2022/01/12 08:50:41;;;;;;;1.45;0.38;;;22.50;99.90;;;;;;4971999;28;20041;-77
2022/01/12 08:53:08;;;;;;;0.82;0.40;;;22.40;99.90;;;;;;4968913;28;20033;-77
2022/01/12 08:55:35;;;;;;;0.50;0.20;;;22.30;99.90;;;;;;4971016;28;20031;-77
2022/01/12 08:58:03;;;;;;;0.30;0.30;;;22.30;99.90;;;;;;4971030;28;20147;-79
2022/01/12 09:00:30;;;;;;;0.65;0.35;;;22.30;99.90;;;;;;4974225;28;20665;-78
2022/01/12 09:02:58;;;;;;;1.15;0.35;;;22.40;99.90;;;;;;4975280;28;20042;-77
2022/01/12 09:05:25;;;;;;;1.50;0.30;;;22.40;99.90;;;;;;4969820;28;20027;-77
2022/01/12 09:07:54;;;;;;;3.67;0.40;;;22.30;99.90;;;;;;4986914;28;20026;-77
2022/01/12 09:10:22;;;;;;;1.25;0.80;;;22.30;99.90;;;;;;4977321;28;20320;-77
2022/01/12 09:12:50;;;;;;;1.02;0.45;;;22.30;99.90;;;;;;4972623;28;20026;-78
2022/01/12 09:15:17;;;;;;;1.27;0.30;;;22.30;99.90;;;;;;4979003;28;20436;-77
2022/01/12 09:17:46;;;;;;;3.22;0.60;;;22.30;99.90;;;;;;4978080;28;20041;-78
2022/01/12 09:20:14;;;;;;;0.88;0.43;;;22.30;99.90;;;;;;4974621;28;20089;-77
2022/01/12 09:22:42;;;;;;;2.05;0.45;;;22.20;99.90;;;;;;4980338;28;20023;-77
2022/01/12 09:25:09;;;;;;;1.10;0.38;;;22.20;99.90;;;;;;4975423;28;20050;-78
2022/01/12 09:27:38;;;;;;;1.00;0.30;;;22.30;99.90;;;;;;4969873;28;20047;-77
2022/01/12 09:30:08;;;;;;;1.00;0.50;;;22.30;99.90;;;;;;4983308;28;20038;-76
2022/01/12 09:32:35;;;;;;;0.45;0.40;;;22.30;99.90;;;;;;4967808;28;20389;-75
2022/01/12 09:35:03;;;;;;;2.05;0.38;;;22.30;99.90;;;;;;4978543;28;20487;-76
2022/01/12 09:37:32;;;;;;;2.22;0.40;;;22.30;99.90;;;;;;4973303;28;20045;-76
2022/01/12 09:40:00;;;;;;;0.57;0.22;;;22.20;99.90;;;;;;4978455;28;20390;-77
2022/01/12 09:42:27;;;;;;;3.00;0.80;;;22.30;99.90;;;;;;4975531;28;20023;-77
2022/01/12 09:44:55;;;;;;;2.97;0.40;;;22.20;99.90;;;;;;4977338;28;20489;-76
2022/01/12 09:47:22;;;;;;;0.98;0.40;;;22.20;99.90;;;;;;4973206;28;20027;-77
2022/01/12 09:49:50;;;;;;;2.03;0.40;;;22.20;99.90;;;;;;4969309;28;20065;-78
2022/01/12 09:52:17;;;;;;;2.83;0.50;;;22.20;99.90;;;;;;4972013;28;20486;-77
2022/01/12 09:54:45;;;;;;;1.77;0.40;;;22.10;99.90;;;;;;4969269;28;20039;-77
2022/01/12 09:57:13;;;;;;;1.17;0.35;;;22.20;99.90;;;;;;4968695;28;20033;-77
2022/01/12 09:59:40;;;;;;;3.42;0.70;;;22.20;99.90;;;;;;4968989;28;20033;-78
2022/01/12 10:02:19;;;;;;;0.98;0.38;;;22.20;99.90;;;;;;4971242;28;20034;-78
2022/01/12 10:04:47;;;;;;;1.35;0.60;;;22.20;99.90;;;;;;4977048;28;20060;-77
2022/01/12 10:07:15;;;;;;;2.65;0.52;;;22.20;99.90;;;;;;4967595;28;20472;-77
2022/01/12 10:09:44;;;;;;;1.25;0.50;;;22.10;99.90;;;;;;4973927;28;20026;-78
2022/01/12 10:12:22;;;;;;;1.65;0.40;;;22.00;99.90;;;;;;4971757;28;20030;-75
2022/01/12 10:14:52;;;;;;;0.90;0.28;;;22.00;99.90;;;;;;4962035;28;20030;-75
2022/01/12 10:17:30;;;;;;;1.13;0.50;;;22.00;99.90;;;;;;4971683;28;20042;-76
2022/01/12 10:20:18;;;;;;;1.15;0.50;;;22.00;99.90;;;;;;4975748;28;20482;-77
2022/01/12 10:23:10;;;;;;;2.20;1.02;;;22.10;99.90;;;;;;4976227;28;20031;-76
2022/01/12 10:25:40;;;;;;;1.60;0.50;;;22.10;99.90;;;;;;4959406;28;20062;-78
2022/01/12 10:28:22;;;;;;;2.28;0.40;;;22.10;99.90;;;;;;4974460;28;20050;-77
2022/01/12 10:30:58;;;;;;;1.30;0.50;;;22.10;99.90;;;;;;4967126;28;20046;-77
2022/01/12 10:33:31;;;;;;;1.27;0.77;;;22.00;99.90;;;;;;4963723;28;20056;-77
2022/01/12 10:36:01;;;;;;;2.47;0.63;;;22.00;99.90;;;;;;4981378;28;20513;-77
2022/01/12 10:38:29;;;;;;;1.95;0.77;;;22.00;99.90;;;;;;4969856;28;20038;-75
2022/01/12 10:41:02;;;;;;;3.58;0.65;;;22.00;99.90;;;;;;4983957;28;20038;-76
2022/01/12 10:43:33;;;;;;;1.42;0.63;;;22.00;99.90;;;;;;4969125;28;20023;-77
2022/01/12 10:46:03;;;;;;;2.50;1.08;;;22.00;99.90;;;;;;4977590;28;20582;-77
2022/01/12 10:48:45;;;;;;;2.95;1.25;;;22.00;99.90;;;;;;4960945;28;20359;-77
2022/01/12 10:51:16;;;;;;;2.50;0.52;;;22.00;99.90;;;;;;4971271;28;20070;-78
2022/01/12 10:53:44;;;;;;;1.88;0.47;;;22.00;99.90;;;;;;4969029;28;20023;-76
2022/01/12 10:56:22;;;;;;;5.32;1.00;;;22.00;99.90;;;;;;4966992;28;20031;-77
2022/01/12 10:58:57;;;;;;;3.28;0.60;;;22.00;99.90;;;;;;4962497;28;20034;-76
2022/01/12 11:01:30;;;;;;;2.27;0.70;;;21.90;99.90;;;;;;4970273;28;20023;-77
2022/01/12 11:03:58;;;;;;;1.75;0.38;;;21.90;99.90;;;;;;4968441;28;20334;-78
2022/01/12 11:06:26;;;;;;;3.50;0.60;;;21.90;99.90;;;;;;4972139;28;20167;-78
2022/01/12 11:08:55;;;;;;;3.03;0.82;;;21.80;99.90;;;;;;4968220;28;20389;-78
2022/01/12 11:11:25;;;;;;;2.47;0.50;;;21.80;99.90;;;;;;4984237;28;20040;-78
2022/01/12 11:13:52;;;;;;;1.95;0.57;;;21.70;99.90;;;;;;4968922;28;20036;-78
2022/01/12 11:16:26;;;;;;;2.67;0.60;;;21.80;99.90;;;;;;4969328;28;20035;-78
2022/01/12 11:18:55;;;;;;;3.42;0.75;;;21.80;99.90;;;;;;4965332;28;20027;-79
2022/01/12 11:21:29;;;;;;;2.58;0.70;;;21.70;99.90;;;;;;4958033;28;20058;-78
2022/01/12 11:24:00;;;;;;;3.63;0.80;;;21.70;99.90;;;;;;4966628;28;20051;-79
2022/01/12 11:26:30;;;;;;;3.03;0.50;;;21.70;99.90;;;;;;4960312;28;20041;-76
2022/01/12 11:28:59;;;;;;;2.20;1.35;;;21.70;99.90;;;;;;4971310;28;20019;-77
2022/01/12 11:31:33;;;;;;;3.38;0.70;;;21.70;99.90;;;;;;4972624;28;20027;-77
2022/01/12 11:34:01;;;;;;;3.75;0.90;;;21.60;99.90;;;;;;4974164;28;20031;-77
2022/01/12 11:36:37;;;;;;;1.55;0.50;;;21.70;99.90;;;;;;4979752;28;20442;-76
2022/01/12 11:39:10;;;;;;;1.38;0.40;;;21.70;99.90;;;;;;4970395;28;20046;-75
2022/01/12 11:41:40;;;;;;;3.00;1.45;;;21.70;99.90;;;;;;4965544;28;20027;-76
2022/01/12 11:44:13;;;;;;;3.20;0.45;;;21.70;99.90;;;;;;4972749;28;20023;-78
2022/01/12 11:46:59;;;;;;;2.03;0.80;;;21.70;99.90;;;;;;4972451;28;20042;-78
2022/01/12 11:49:31;;;;;;;1.85;0.68;;;21.70;99.90;;;;;;4974719;28;20113;-78
2022/01/12 11:52:00;;;;;;;0.80;0.40;;;21.70;99.90;;;;;;4977910;28;20045;-78
2022/01/12 11:54:38;;;;;;;4.22;0.70;;;21.70;99.90;;;;;;4975610;28;20061;-76
2022/01/12 11:57:08;;;;;;;3.78;0.68;;;21.70;99.90;;;;;;4969298;28;20505;-77
2022/01/12 11:59:56;;;;;;;2.05;0.57;;;21.60;99.90;;;;;;4977907;28;20490;-76
2022/01/12 12:02:42;;;;;;;4.93;0.80;;;21.50;99.90;;;;;;4960421;28;20110;-76
2022/01/12 12:05:19;;;;;;;5.38;0.50;;;21.50;99.90;;;;;;4976368;28;20081;-76
2022/01/12 12:08:01;;;;;;;3.13;0.65;;;21.40;99.90;;;;;;4969292;28;20027;-76
2022/01/12 12:10:30;;;;;;;1.90;0.80;;;21.30;99.90;;;;;;4973854;28;20564;-76
2022/01/12 12:12:59;;;;;;;2.33;0.50;;;21.20;99.90;;;;;;4962799;28;20482;-78
2022/01/12 12:15:27;;;;;;;4.13;0.73;;;21.20;99.90;;;;;;4973970;28;20080;-79
2022/01/12 12:17:58;;;;;;;1.92;1.10;;;21.20;99.90;;;;;;4972994;28;20037;-76
2022/01/12 12:20:26;;;;;;;4.57;1.10;;;21.10;99.90;;;;;;4972437;28;20045;-76
2022/01/12 12:22:54;;;;;;;5.50;1.00;;;21.10;99.90;;;;;;4971214;28;20114;-75
2022/01/12 12:25:34;;;;;;;4.68;0.60;;;21.00;99.90;;;;;;4970660;28;20031;-76
2022/01/12 12:28:04;;;;;;;2.60;0.60;;;21.00;99.90;;;;;;4972542;28;20510;-74
2022/01/12 12:30:33;;;;;;;11.68;1.25;;;21.00;99.90;;;;;;4973052;28;20061;-75
2022/01/12 12:33:11;;;;;;;4.55;0.60;;;21.00;99.90;;;;;;4971813;28;20081;-75
2022/01/12 12:35:40;;;;;;;3.70;0.73;;;20.90;99.90;;;;;;4968115;28;20117;-76
2022/01/12 12:38:13;;;;;;;1.80;0.60;;;20.90;99.90;;;;;;4968510;28;20022;-73
2022/01/12 12:40:53;;;;;;;3.33;0.68;;;20.90;99.90;;;;;;4970673;28;20106;-76
2022/01/12 12:43:25;;;;;;;4.20;0.85;;;20.90;99.90;;;;;;4970177;28;20381;-77
2022/01/12 12:45:56;;;;;;;4.90;0.88;;;20.90;99.90;;;;;;4972104;28;20027;-76
2022/01/12 12:48:26;;;;;;;6.53;1.17;;;20.90;99.90;;;;;;4967703;28;20073;-76
2022/01/12 12:51:09;;;;;;;4.20;1.02;;;20.90;99.90;;;;;;4964978;28;20065;-78
2022/01/12 12:53:40;;;;;;;2.42;0.65;;;21.00;99.90;;;;;;4972225;28;20027;-78
2022/01/12 12:56:12;;;;;;;1.60;0.60;;;21.00;99.90;;;;;;4970070;28;20421;-79
2022/01/12 12:58:40;;;;;;;1.38;0.73;;;21.00;99.90;;;;;;4965975;28;20030;-77
2022/01/12 13:01:24;;;;;;;2.60;0.88;;;21.00;99.90;;;;;;4968279;28;20030;-78
2022/01/12 13:03:54;;;;;;;2.90;0.75;;;21.00;99.90;;;;;;4972485;28;20454;-76
2022/01/12 13:06:39;;;;;;;1.50;0.50;;;21.00;99.90;;;;;;4964097;28;20051;-77
2022/01/12 13:09:09;;;;;;;1.77;0.60;;;21.00;99.90;;;;;;4968104;28;20070;-77
2022/01/12 13:11:44;;;;;;;2.85;0.57;;;21.00;99.90;;;;;;4968467;28;20485;-78
2022/01/12 13:14:14;;;;;;;5.03;0.73;;;21.00;99.90;;;;;;4969111;28;20023;-77
2022/01/12 13:16:49;;;;;;;1.70;0.65;;;21.00;99.90;;;;;;4973715;28;20042;-77
2022/01/12 13:22:41;;;;;;;2.88;0.82;;;20.90;99.90;;;;;;4954500;28;20093;-76
2022/01/12 13:25:11;;;;;;;3.15;0.57;;;21.00;99.90;;;;;;4966829;28;20493;-77
2022/01/12 13:27:40;;;;;;;1.73;0.52;;;21.00;99.90;;;;;;4968840;28;20043;-78
2022/01/12 13:30:10;;;;;;;4.10;0.70;;;20.90;99.90;;;;;;4968314;28;20043;-75
2022/01/12 13:32:38;;;;;;;1.52;0.40;;;21.00;99.90;;;;;;4971159;28;20062;-77
2022/01/12 13:35:10;;;;;;;3.78;1.23;;;21.00;99.90;;;;;;4969341;28;20035;-75
2022/01/12 13:37:42;;;;;;;5.25;1.63;;;20.90;99.90;;;;;;4967869;28;20030;-75
2022/01/12 13:40:14;;;;;;;0.70;0.60;;;20.90;99.90;;;;;;4969957;28;20487;-76
2022/01/12 13:42:49;;;;;;;1.58;0.80;;;20.90;99.90;;;;;;4977723;28;20533;-75
2022/01/12 13:45:21;;;;;;;0.93;0.70;;;20.90;99.90;;;;;;4968358;28;20037;-76
2022/01/12 13:47:59;;;;;;;1.63;0.40;;;20.90;99.90;;;;;;4966269;28;20299;-77
2022/01/12 13:50:36;;;;;;;1.83;0.80;;;20.90;99.90;;;;;;4967247;28;20355;-76
2022/01/12 13:53:05;;;;;;;2.45;0.80;;;20.90;99.90;;;;;;4965576;28;20023;-76
2022/01/12 13:55:34;;;;;;;2.05;0.73;;;20.90;99.90;;;;;;4967397;28;20027;-77
2022/01/12 13:58:07;;;;;;;1.40;0.50;;;20.90;99.90;;;;;;4965429;28;20030;-77
2022/01/12 14:00:37;;;;;;;2.65;0.95;;;20.90;99.90;;;;;;4973196;28;20027;-77
2022/01/12 14:03:19;;;;;;;2.78;0.43;;;20.80;99.90;;;;;;4972551;28;20023;-77
2022/01/12 14:05:47;;;;;;;3.75;0.60;;;20.90;99.90;;;;;;4970282;28;20089;-77
2022/01/12 14:08:15;;;;;;;2.35;0.50;;;20.90;99.90;;;;;;4967180;28;20318;-79
2022/01/12 14:10:51;;;;;;;1.30;0.63;;;20.80;99.90;;;;;;4970582;28;20062;-78
2022/01/12 14:13:27;;;;;;;1.50;0.57;;;20.90;99.90;;;;;;4973149;28;20035;-77
2022/01/12 14:16:04;;;;;;;2.17;0.85;;;20.80;99.90;;;;;;4970305;28;20026;-77
2022/01/12 14:18:32;;;;;;;2.72;0.80;;;20.90;99.90;;;;;;4968719;28;20031;-78
2022/01/12 14:20:59;;;;;;;8.40;1.75;;;20.80;99.90;;;;;;4978848;28;20132;-78